Time;durP1;ratioP1;P1;durP2;ratioP2;P2;SDS_P1;SDS_P2;PMS_P1;PMS_P2;Temp;Humidity;BMP_temperature;BMP_pressure;BME280_temperature;BME280_humidity;BME280_pressure;Samples;Min_cycle;Max_cycle;Signal;HPM_P1;HPM_P2
2022/07/11 00:00:30;;;;;;;3.22;2.35;;;;;;;21.89;100.00;98737.52;1736378;81;21917;-71
2022/07/11 00:02:57;;;;;;;4.97;2.12;;;;;;;21.97;100.00;98744.45;1735044;81;21270;-72
2022/07/11 00:05:23;;;;;;;5.35;2.52;;;;;;;21.83;100.00;98747.59;1735128;81;21030;-72
2022/07/11 00:07:51;;;;;;;4.70;2.10;;;;;;;21.86;100.00;98753.77;1738188;82;21012;-72
2022/07/11 00:10:18;;;;;;;2.65;1.77;;;;;;;21.89;100.00;98752.13;1737552;82;21038;-71
2022/07/11 00:12:47;;;;;;;3.60;2.15;;;;;;;21.87;100.00;98747.56;1736935;81;21218;-71
2022/07/11 00:15:13;;;;;;;3.08;1.90;;;;;;;21.82;100.00;98745.99;1734792;81;21015;-70
2022/07/11 00:17:41;;;;;;;4.20;2.17;;;;;;;21.76;100.00;98745.64;1714128;82;21018;-72
2022/07/11 00:20:09;;;;;;;6.83;2.72;;;;;;;21.82;100.00;98749.42;1736664;82;21066;-71
2022/07/11 00:22:37;;;;;;;3.98;2.35;;;;;;;21.83;100.00;98749.59;1735725;81;21476;-72
2022/07/11 00:25:07;;;;;;;4.90;2.55;;;;;;;21.75;100.00;98748.86;1736836;82;21331;-72
2022/07/11 00:27:35;;;;;;;5.87;2.17;;;;;;;21.70;100.00;98750.70;1730542;81;21451;-72
2022/07/11 00:30:01;;;;;;;6.05;2.80;;;;;;;21.62;100.00;98749.96;1723164;81;21007;-70
2022/07/11 00:32:29;;;;;;;4.90;2.20;;;;;;;21.59;100.00;98749.40;1722866;82;21477;-69
2022/07/11 00:34:56;;;;;;;4.08;2.15;;;;;;;21.52;100.00;98735.66;1718315;82;21559;-71
2022/07/11 00:37:23;;;;;;;5.12;2.15;;;;;;;21.51;100.00;98738.25;1724332;82;21080;-73
2022/07/11 00:39:53;;;;;;;5.12;2.55;;;;;;;21.59;100.00;98739.59;1723973;82;21721;-71
2022/07/11 00:42:19;;;;;;;8.10;2.55;;;;;;;21.55;100.00;98744.41;1718887;82;21539;-69
2022/07/11 00:44:51;;;;;;;4.30;2.45;;;;;;;21.52;100.00;98748.86;1724305;82;21067;-72
2022/07/11 00:47:18;;;;;;;4.75;2.47;;;;;;;21.42;100.00;98746.34;1724235;82;21622;-70
2022/07/11 00:49:45;;;;;;;4.92;2.58;;;;;;;21.42;100.00;98742.74;1723053;82;21640;-69
2022/07/11 00:52:11;;;;;;;5.08;2.30;;;;;;;21.39;100.00;98737.38;1725269;82;21033;-71
2022/07/11 00:54:40;;;;;;;5.45;2.70;;;;;;;21.32;100.00;98734.63;1720011;82;21306;-70
2022/07/11 00:57:07;;;;;;;5.22;2.27;;;;;;;21.25;100.00;98734.08;1723262;81;21036;-71
2022/07/11 00:59:35;;;;;;;5.45;2.50;;;;;;;21.26;100.00;98742.06;1718404;82;21043;-71
2022/07/11 01:02:04;;;;;;;6.25;2.72;;;;;;;21.27;100.00;98738.67;1722711;82;21214;-70
2022/07/11 01:04:32;;;;;;;5.87;2.40;;;;;;;21.30;100.00;98739.84;1714172;82;21507;-73
2022/07/11 01:06:59;;;;;;;4.62;2.52;;;;;;;21.30;100.00;98736.44;1726408;82;21082;-72
2022/07/11 01:09:28;;;;;;;6.03;2.42;;;;;;;21.31;100.00;98731.02;1720809;82;21535;-71
2022/07/11 01:11:54;;;;;;;5.62;2.42;;;;;;;21.28;100.00;98727.65;1711462;82;21043;-70
2022/07/11 01:14:21;;;;;;;5.47;2.70;;;;;;;21.31;100.00;98726.05;1723412;82;21808;-71
2022/07/11 01:16:48;;;;;;;2.37;1.80;;;;;;;21.28;100.00;98724.84;1722692;82;21046;-72
2022/07/11 01:19:14;;;;;;;6.37;2.20;;;;;;;21.27;100.00;98730.27;1723249;82;21056;-72
2022/07/11 01:21:40;;;;;;;4.15;2.27;;;;;;;21.32;100.00;98727.63;1721732;82;21067;-67
2022/07/11 01:24:08;;;;;;;3.50;2.45;;;;;;;21.28;100.00;98725.66;1720066;82;20996;-69
2022/07/11 01:26:36;;;;;;;5.12;2.20;;;;;;;21.32;100.00;98723.42;1720646;82;21229;-72
2022/07/11 01:29:13;;;;;;;4.62;2.83;;;;;;;21.29;100.00;98722.22;1721840;82;21497;-71
2022/07/11 01:31:42;;;;;;;4.28;2.60;;;;;;;21.18;100.00;98725.73;1727345;81;21125;-72
2022/07/11 01:34:09;;;;;;;7.53;2.47;;;;;;;21.13;100.00;98723.58;1730977;81;21066;-70
2022/07/11 01:36:36;;;;;;;6.97;2.35;;;;;;;21.23;100.00;98728.09;1731875;82;21472;-71
2022/07/11 01:39:03;;;;;;;4.00;2.55;;;;;;;21.19;100.00;98721.73;1724061;82;21139;-71
2022/07/11 01:41:31;;;;;;;6.15;3.00;;;;;;;21.14;100.00;98715.36;1731123;82;21075;-70
2022/07/11 01:43:58;;;;;;;8.00;2.17;;;;;;;21.16;100.00;98725.55;1746645;80;21086;-72
2022/07/11 01:46:24;;;;;;;4.55;2.72;;;;;;;21.22;100.00;98727.28;1738099;81;20986;-70
2022/07/11 01:48:51;;;;;;;7.05;2.58;;;;;;;21.22;100.00;98722.30;1744231;81;21041;-70
2022/07/11 01:51:18;;;;;;;4.53;3.25;;;;;;;21.13;100.00;98720.77;1742948;81;21069;-72
2022/07/11 01:53:48;;;;;;;6.53;2.58;;;;;;;21.21;100.00;98717.89;1726537;82;21023;-70
2022/07/11 01:56:14;;;;;;;9.85;2.62;;;;;;;21.21;100.00;98720.09;1728456;82;21546;-70
2022/07/11 01:58:41;;;;;;;6.33;3.30;;;;;;;21.17;100.00;98716.55;1728048;81;21070;-68
2022/07/11 02:01:07;;;;;;;4.47;2.60;;;;;;;21.20;100.00;98719.12;1729729;81;21006;-73
2022/07/11 02:03:34;;;;;;;4.37;2.62;;;;;;;21.19;100.00;98716.91;1726985;81;21128;-71
2022/07/11 02:06:01;;;;;;;5.08;2.55;;;;;;;21.12;100.00;98715.59;1728448;81;21134;-73
2022/07/11 02:08:27;;;;;;;7.33;2.92;;;;;;;21.06;100.00;98709.62;1729958;82;20999;-72
2022/07/11 02:10:57;;;;;;;3.98;2.00;;;;;;;21.03;100.00;98708.42;1729865;81;21004;-71
2022/07/11 02:13:26;;;;;;;5.30;3.50;;;;;;;21.02;100.00;98711.05;1741090;81;21014;-73
2022/07/11 02:15:53;;;;;;;4.92;2.37;;;;;;;21.02;100.00;98716.64;1742738;81;21562;-72
2022/07/11 02:18:21;;;;;;;3.90;2.45;;;;;;;21.02;100.00;98708.84;1747282;81;21081;-72
2022/07/11 02:20:51;;;;;;;4.08;2.90;;;;;;;20.99;100.00;98712.47;1743623;81;21013;-72
2022/07/11 02:23:18;;;;;;;3.62;2.60;;;;;;;20.99;100.00;98710.47;1744423;81;21035;-71
2022/07/11 02:25:46;;;;;;;6.67;3.35;;;;;;;21.02;100.00;98711.64;1742128;81;21038;-69
2022/07/11 02:28:15;;;;;;;6.00;3.10;;;;;;;21.03;100.00;98714.65;1741492;81;21811;-70
2022/07/11 02:30:43;;;;;;;5.47;3.30;;;;;;;21.07;100.00;98725.20;1725709;81;21069;-71
2022/07/11 02:33:17;;;;;;;6.67;3.67;;;;;;;21.11;100.00;98726.58;1720335;82;21504;-69
2022/07/11 02:35:48;;;;;;;5.28;3.33;;;;;;;21.07;100.00;98726.60;1712619;82;21051;-69
2022/07/11 02:38:15;;;;;;;6.08;2.85;;;;;;;21.11;100.00;98727.38;1719288;82;21036;-67
2022/07/11 02:40:44;;;;;;;7.47;3.02;;;;;;;21.09;100.00;98719.19;1725631;82;21081;-69
2022/07/11 02:43:12;;;;;;;4.58;2.45;;;;;;;21.04;100.00;98723.23;1712581;82;21044;-71
2022/07/11 02:45:40;;;;;;;3.47;2.27;;;;;;;21.06;100.00;98721.42;1722437;82;21275;-70
2022/07/11 02:48:09;;;;;;;7.22;3.17;;;;;;;21.06;100.00;98722.81;1717431;82;21010;-71
2022/07/11 02:50:38;;;;;;;4.95;2.80;;;;;;;21.09;100.00;98719.19;1720794;82;21066;-73
2022/07/11 02:53:04;;;;;;;5.20;3.00;;;;;;;21.15;100.00;98715.53;1718685;82;21222;-70
2022/07/11 02:55:32;;;;;;;10.78;3.58;;;;;;;21.20;100.00;98721.92;1720267;81;21079;-72
2022/07/11 02:57:59;;;;;;;6.37;3.00;;;;;;;21.32;100.00;98715.82;1718323;82;21050;-71
2022/07/11 03:00:28;;;;;;;6.40;3.30;;;;;;;21.28;100.00;98710.25;1721297;82;21488;-70
2022/07/11 03:02:54;;;;;;;6.80;2.60;;;;;;;21.28;100.00;98715.05;1724287;82;21090;-69
2022/07/11 03:05:21;;;;;;;7.22;3.40;;;;;;;21.27;100.00;98712.84;1719151;82;22028;-72
2022/07/11 03:07:48;;;;;;;7.90;4.22;;;;;;;21.18;100.00;98714.52;1721203;82;21529;-71
2022/07/11 03:10:15;;;;;;;5.55;3.98;;;;;;;21.20;100.00;98707.32;1717606;80;21046;-71
2022/07/11 03:12:42;;;;;;;11.83;5.58;;;;;;;21.20;100.00;98710.72;1722026;82;21023;-71
2022/07/11 03:15:09;;;;;;;11.55;6.15;;;;;;;21.20;100.00;98714.91;1721002;82;21168;-70
2022/07/11 03:17:37;;;;;;;18.92;9.05;;;;;;;21.22;100.00;98713.91;1722638;82;21783;-70
2022/07/11 03:20:05;;;;;;;24.98;8.73;;;;;;;21.21;100.00;98713.70;1721569;82;21468;-71
2022/07/11 03:22:32;;;;;;;23.12;9.33;;;;;;;21.19;100.00;98720.34;1719806;82;21506;-72
2022/07/11 03:25:00;;;;;;;17.90;9.40;;;;;;;21.24;100.00;98720.67;1720748;82;21465;-71
2022/07/11 03:27:28;;;;;;;23.45;10.13;;;;;;;21.24;100.00;98725.50;1722082;82;21536;-68
2022/07/11 03:29:57;;;;;;;24.37;11.20;;;;;;;21.61;100.00;98717.55;1722030;81;22164;-70
2022/07/11 03:32:25;;;;;;;23.80;10.60;;;;;;;21.28;100.00;98729.85;1714114;82;21093;-70
2022/07/11 03:37:43;;;;;;;28.60;11.83;;;;;;;21.13;100.00;98733.38;1711780;82;22372;-67
2022/07/11 03:40:13;;;;;;;28.60;12.55;;;;;;;21.21;100.00;98729.09;1708246;82;21669;-72
2022/07/11 03:42:41;;;;;;;36.05;12.55;;;;;;;21.22;100.00;98731.48;1737552;81;21517;-70
2022/07/11 03:45:08;;;;;;;27.07;13.13;;;;;;;21.26;100.00;98744.06;1737000;80;22076;-73
2022/07/11 03:47:36;;;;;;;24.65;11.22;;;;;;;21.30;100.00;98747.64;1736305;81;21561;-74
2022/07/11 03:50:04;;;;;;;30.40;13.05;;;;;;;21.32;100.00;98741.03;1736634;82;20979;-66
2022/07/11 03:52:32;;;;;;;35.83;14.28;;;;;;;21.33;100.00;98734.21;1731595;81;21022;-71
2022/07/11 03:55:02;;;;;;;29.75;15.50;;;;;;;21.37;100.00;98739.19;1739680;82;21511;-70
2022/07/11 03:57:28;;;;;;;45.10;16.75;;;;;;;21.33;100.00;98743.20;1735803;81;21014;-70
2022/07/11 03:59:56;;;;;;;35.73;16.10;;;;;;;21.39;100.00;98733.95;1725894;82;21530;-73
2022/07/11 04:02:22;;;;;;;38.58;17.92;;;;;;;21.38;100.00;98734.36;1735025;81;21062;-69
2022/07/11 04:04:54;;;;;;;33.63;17.20;;;;;;;21.40;100.00;98742.56;1736196;82;21050;-71
2022/07/11 04:07:20;;;;;;;35.35;16.60;;;;;;;21.37;100.00;98750.39;1733582;82;21877;-71
2022/07/11 04:09:47;;;;;;;42.00;17.17;;;;;;;21.38;100.00;98747.77;1737165;81;21555;-70
2022/07/11 04:12:14;;;;;;;40.58;18.02;;;;;;;21.34;100.00;98743.42;1732293;81;21045;-71
2022/07/11 04:14:41;;;;;;;36.38;18.52;;;;;;;21.25;100.00;98744.69;1739251;82;22050;-71
2022/07/11 04:17:07;;;;;;;37.50;16.25;;;;;;;21.22;100.00;98740.52;1737843;82;21066;-70
2022/07/11 04:19:42;;;;;;;40.73;17.70;;;;;;;21.15;100.00;98739.97;1732875;81;21708;-69
2022/07/11 04:22:09;;;;;;;34.78;15.85;;;;;;;21.14;100.00;98747.56;1738793;81;21060;-71
2022/07/11 04:24:37;;;;;;;39.67;17.20;;;;;;;21.15;100.00;98746.34;1735204;82;20998;-68
2022/07/11 04:27:04;;;;;;;32.67;15.35;;;;;;;21.21;100.00;98741.11;1734055;81;21469;-68
2022/07/11 04:29:32;;;;;;;40.10;15.80;;;;;;;21.11;100.00;98731.59;1737510;81;21038;-71
2022/07/11 04:31:59;;;;;;;32.08;14.80;;;;;;;21.11;100.00;98736.37;1673349;83;21057;-70
2022/07/11 04:34:28;;;;;;;34.70;14.35;;;;;;;21.08;100.00;98735.22;1682082;84;21023;-71
2022/07/11 04:36:55;;;;;;;31.75;14.83;;;;;;;21.08;100.00;98740.01;1717145;82;21054;-68
2022/07/11 04:39:24;;;;;;;36.55;14.45;;;;;;;21.12;100.00;98742.97;1722178;82;21035;-69
2022/07/11 04:41:52;;;;;;;32.30;14.73;;;;;;;21.07;100.00;98739.20;1721671;82;21003;-68
2022/07/11 04:44:19;;;;;;;31.27;13.08;;;;;;;21.10;100.00;98733.40;1719031;82;21788;-72
2022/07/11 04:46:47;;;;;;;28.85;13.78;;;;;;;21.19;100.00;98738.54;1725071;82;21098;-65
2022/07/11 04:49:18;;;;;;;30.32;12.60;;;;;;;21.31;100.00;98734.45;1719174;82;21809;-70
2022/07/11 04:51:46;;;;;;;29.98;12.40;;;;;;;21.27;100.00;98737.27;1721536;82;21496;-71
2022/07/11 04:54:15;;;;;;;27.22;13.48;;;;;;;21.40;100.00;98742.56;1717604;82;21067;-69
2022/07/11 04:56:42;;;;;;;30.80;12.58;;;;;;;21.47;100.00;98746.50;1722731;82;21541;-71
2022/07/11 04:59:08;;;;;;;26.07;12.55;;;;;;;21.56;100.00;98745.43;1725488;82;21015;-72
2022/07/11 05:01:35;;;;;;;23.65;12.00;;;;;;;21.61;100.00;98744.98;1715964;82;21059;-67
2022/07/11 05:04:03;;;;;;;24.05;10.72;;;;;;;21.67;100.00;98743.91;1719897;82;21075;-70
2022/07/11 05:06:30;;;;;;;23.25;11.20;;;;;;;21.67;100.00;98750.92;1719547;82;21024;-71
2022/07/11 05:09:00;;;;;;;25.72;11.05;;;;;;;21.73;100.00;98744.27;1718421;82;21632;-71
2022/07/11 05:11:27;;;;;;;24.77;11.38;;;;;;;21.76;100.00;98746.23;1722744;81;21035;-73
2022/07/11 05:13:53;;;;;;;19.92;9.68;;;;;;;21.74;100.00;98744.45;1721792;82;21004;-71
2022/07/11 05:16:29;;;;;;;23.60;10.18;;;;;;;21.75;100.00;98743.25;1724010;82;21075;-72
2022/07/11 05:18:56;;;;;;;23.77;10.03;;;;;;;21.80;100.00;98742.83;1719354;82;21053;-72
2022/07/11 05:21:24;;;;;;;22.35;9.13;;;;;;;21.75;100.00;98739.82;1721337;82;20957;-73
2022/07/11 05:23:50;;;;;;;23.40;10.13;;;;;;;21.71;100.00;98751.69;1725003;82;21349;-71
2022/07/11 05:26:18;;;;;;;19.07;9.35;;;;;;;21.86;100.00;98741.75;1723355;82;21536;-71
2022/07/11 05:28:45;;;;;;;21.95;9.60;;;;;;;21.91;100.00;98748.91;1720859;82;21049;-71
2022/07/11 05:31:14;;;;;;;21.95;8.78;;;;;;;21.88;100.00;98744.94;1727540;82;21433;-70
2022/07/11 05:33:41;;;;;;;24.77;8.88;;;;;;;22.00;100.00;98745.02;1730636;81;21117;-73
2022/07/11 05:36:08;;;;;;;15.53;7.78;;;;;;;21.96;100.00;98742.84;1731647;81;21059;-71
2022/07/11 05:38:35;;;;;;;19.98;9.10;;;;;;;22.07;100.00;98739.94;1733770;82;21082;-69
2022/07/11 05:41:06;;;;;;;20.75;8.95;;;;;;;22.13;100.00;98746.06;1737593;82;21613;-66
2022/07/11 05:43:35;;;;;;;16.77;8.30;;;;;;;22.23;100.00;98745.75;1736717;80;21083;-71
2022/07/11 05:46:06;;;;;;;16.15;7.95;;;;;;;22.30;100.00;98744.86;1739509;82;22062;-71
2022/07/11 05:48:34;;;;;;;16.83;8.33;;;;;;;22.34;100.00;98742.02;1737682;82;21618;-72
2022/07/11 05:51:00;;;;;;;15.40;7.83;;;;;;;22.41;100.00;98735.52;1732719;82;21483;-69
2022/07/11 05:53:30;;;;;;;17.40;7.83;;;;;;;22.49;100.00;98737.02;1734809;82;21013;-71
2022/07/11 05:55:57;;;;;;;18.25;8.43;;;;;;;22.53;100.00;98737.77;1733401;82;21027;-71
2022/07/11 05:58:23;;;;;;;19.12;7.90;;;;;;;22.54;100.00;98734.34;1736285;82;21539;-70
2022/07/11 06:00:50;;;;;;;18.30;7.67;;;;;;;22.59;100.00;98729.06;1736333;82;21258;-71
2022/07/11 06:03:18;;;;;;;23.27;7.95;;;;;;;22.67;100.00;98735.39;1733933;82;20984;-70
2022/07/11 06:05:53;;;;;;;16.27;7.78;;;;;;;22.68;100.00;98735.59;1739534;82;21039;-71
2022/07/11 06:11:14;;;;;;;16.52;7.67;;;;;;;22.74;100.00;98738.10;1737210;82;21019;-73
2022/07/11 06:13:44;;;;;;;14.18;7.60;;;;;;;22.86;100.00;98734.52;1736840;82;21042;-70
2022/07/11 06:16:11;;;;;;;13.62;7.28;;;;;;;22.98;100.00;98738.76;1742841;81;21015;-72
2022/07/11 06:18:45;;;;;;;12.70;6.30;;;;;;;22.97;100.00;98737.18;1728853;81;21097;-65
2022/07/11 06:21:12;;;;;;;15.23;6.62;;;;;;;23.06;100.00;98740.27;1739823;81;21010;-66
2022/07/11 06:23:40;;;;;;;17.98;7.50;;;;;;;23.12;100.00;98736.34;1741320;81;21141;-67
2022/07/11 06:26:11;;;;;;;18.05;7.00;;;;;;;23.16;100.00;98732.88;1745473;81;21481;-68
2022/07/11 06:28:42;;;;;;;13.48;6.90;;;;;;;23.25;100.00;98737.97;1741019;81;20996;-70
2022/07/11 06:31:12;;;;;;;14.47;6.95;;;;;;;23.27;100.00;98735.50;1743324;80;21052;-70
2022/07/11 06:33:39;;;;;;;13.32;5.70;;;;;;;23.29;100.00;98732.26;1732602;81;21020;-72
2022/07/11 06:36:09;;;;;;;13.08;5.58;;;;;;;23.41;100.00;98735.91;1736749;81;21102;-70
2022/07/11 06:38:37;;;;;;;15.55;6.45;;;;;;;23.54;100.00;98734.67;1730635;81;21024;-68
2022/07/11 06:41:03;;;;;;;10.43;5.87;;;;;;;23.88;100.00;98731.48;1755689;81;21006;-70
2022/07/11 06:43:30;;;;;;;12.37;5.58;;;;;;;24.00;100.00;98729.24;1758604;80;21008;-71
2022/07/11 06:45:57;;;;;;;15.68;6.15;;;;;;;23.98;100.00;98729.67;1750871;81;21014;-72
2022/07/11 06:48:23;;;;;;;13.10;5.75;;;;;;;23.96;100.00;98730.72;1749807;80;21598;-73
2022/07/11 06:50:50;;;;;;;15.48;5.70;;;;;;;23.81;100.00;98728.19;1754274;81;20998;-72
2022/07/11 06:53:17;;;;;;;11.48;5.35;;;;;;;23.83;100.00;98725.72;1744997;81;21179;-71
2022/07/11 06:55:44;;;;;;;8.43;4.55;;;;;;;23.82;100.00;98728.36;1747529;81;21003;-70
2022/07/11 06:58:10;;;;;;;9.03;4.72;;;;;;;23.89;100.00;98722.41;1747242;81;21054;-71
2022/07/11 07:00:37;;;;;;;12.00;5.40;;;;;;;23.98;100.00;98716.22;1742871;81;21116;-70
2022/07/11 07:03:04;;;;;;;15.05;4.97;;;;;;;24.17;100.00;98717.48;1750331;81;20991;-69
2022/07/11 07:05:33;;;;;;;13.75;5.35;;;;;;;24.22;100.00;98718.39;1747404;81;21070;-72
2022/07/11 07:08:00;;;;;;;22.58;5.15;;;;;;;24.26;100.00;98721.91;1749282;81;21015;-70
2022/07/11 07:10:28;;;;;;;10.95;4.53;;;;;;;24.36;100.00;98719.31;1748293;81;20975;-70
2022/07/11 07:12:57;;;;;;;14.23;4.55;;;;;;;24.40;100.00;98715.79;1747606;81;21455;-73
2022/07/11 07:15:28;;;;;;;12.50;3.87;;;;;;;24.52;100.00;98719.36;1748176;81;21488;-71
2022/07/11 07:18:00;;;;;;;6.15;3.37;;;;;;;24.61;100.00;98719.38;1744989;81;21030;-70
2022/07/11 07:20:27;;;;;;;13.45;4.12;;;;;;;24.82;100.00;98722.94;1748413;81;21173;-70
2022/07/11 07:22:53;;;;;;;7.58;4.15;;;;;;;24.95;100.00;98718.23;1749720;81;21137;-70
2022/07/11 07:25:21;;;;;;;10.82;3.30;;;;;;;25.01;100.00;98717.87;1747815;81;21078;-70
2022/07/11 07:27:51;;;;;;;13.70;3.72;;;;;;;25.12;100.00;98719.64;1747931;81;21596;-72
2022/07/11 07:30:19;;;;;;;9.10;3.45;;;;;;;25.15;100.00;98715.33;1750214;81;21007;-72
2022/07/11 07:32:46;;;;;;;4.62;2.60;;;;;;;25.16;100.00;98720.36;1726921;81;21296;-72
2022/07/11 07:35:12;;;;;;;7.92;2.90;;;;;;;25.16;100.00;98730.22;1707002;82;21024;-72
2022/07/11 07:37:39;;;;;;;3.87;2.65;;;;;;;25.10;100.00;98724.30;1730369;82;21118;-67
2022/07/11 07:40:07;;;;;;;9.00;3.05;;;;;;;25.11;100.00;98724.47;1721702;82;21059;-72
2022/07/11 07:42:34;;;;;;;6.95;2.45;;;;;;;25.22;100.00;98726.23;1724305;82;21028;-72
2022/07/11 07:45:01;;;;;;;6.22;2.70;;;;;;;25.20;100.00;98722.45;1721421;82;21537;-71
2022/07/11 07:47:29;;;;;;;7.62;2.92;;;;;;;25.02;100.00;98736.98;1723545;81;21039;-72
2022/07/11 07:49:56;;;;;;;5.45;2.50;;;;;;;25.02;100.00;98725.11;1725499;82;21111;-73
2022/07/11 07:52:24;;;;;;;10.82;2.50;;;;;;;25.08;100.00;98730.22;1722776;82;21063;-72
2022/07/11 07:54:51;;;;;;;5.03;1.80;;;;;;;25.17;100.00;98726.16;1722941;82;21092;-70
2022/07/11 07:57:18;;;;;;;6.35;1.80;;;;;;;25.37;100.00;98723.23;1722623;82;21000;-71
2022/07/11 07:59:48;;;;;;;7.50;1.92;;;;;;;25.21;100.00;98724.05;1717813;82;21016;-72
2022/07/11 08:02:15;;;;;;;5.53;1.22;;;;;;;25.31;100.00;98725.63;1718192;82;21921;-72
2022/07/11 08:04:44;;;;;;;3.20;1.30;;;;;;;25.34;100.00;98720.51;1728307;82;21515;-72
2022/07/11 08:07:11;;;;;;;2.30;1.30;;;;;;;25.32;100.00;98725.17;1722036;81;21044;-72
2022/07/11 08:09:40;;;;;;;3.22;1.22;;;;;;;25.35;100.00;98727.75;1713611;82;21173;-67
2022/07/11 08:12:08;;;;;;;4.83;1.32;;;;;;;25.52;100.00;98719.42;1714673;82;21001;-70
2022/07/11 08:14:38;;;;;;;5.67;1.40;;;;;;;25.51;100.00;98720.67;1688046;82;21270;-71
2022/07/11 08:17:05;;;;;;;5.05;1.62;;;;;;;25.46;100.00;98709.94;1716928;82;21089;-70
2022/07/11 08:19:33;;;;;;;1.12;1.00;;;;;;;25.47;100.00;98715.73;1716559;82;21025;-70
2022/07/11 08:22:04;;;;;;;3.70;1.35;;;;;;;25.61;100.00;98715.98;1723097;82;21063;-74
2022/07/11 08:24:33;;;;;;;2.98;1.35;;;;;;;25.62;100.00;98724.60;1725246;82;20988;-77
2022/07/11 08:27:02;;;;;;;5.30;1.05;;;;;;;25.62;100.00;98726.66;1725411;81;21618;-75
2022/07/11 08:29:38;;;;;;;4.78;1.57;;;;;;;25.62;100.00;98719.61;1722333;82;21469;-69
2022/07/11 08:32:08;;;;;;;2.80;1.30;;;;;;;25.56;100.00;98722.16;1725071;81;21063;-74
2022/07/11 08:34:54;;;;;;;4.28;1.30;;;;;;;25.57;100.00;98724.37;1726068;82;21059;-74
2022/07/11 08:37:20;;;;;;;2.42;1.27;;;;;;;25.49;100.00;98723.75;1728056;81;21071;-71
2022/07/11 08:39:54;;;;;;;4.75;1.50;;;;;;;25.55;100.00;98733.27;1734727;82;21524;-73
2022/07/11 08:42:34;;;;;;;2.25;0.90;;;;;;;25.55;100.00;98733.27;1731200;82;21146;-71
2022/07/11 08:45:06;;;;;;;1.45;1.10;;;;;;;25.49;100.00;98734.41;1723123;81;21083;-71
2022/07/11 08:47:32;;;;;;;4.83;1.32;;;;;;;25.38;100.00;98727.66;1708167;83;21066;-71
2022/07/11 08:49:59;;;;;;;4.97;1.47;;;;;;;25.28;100.00;98722.45;1729628;81;21515;-72
2022/07/11 08:52:26;;;;;;;8.05;1.62;;;;;;;25.47;100.00;98725.59;1724605;81;21148;-70
2022/07/11 08:54:55;;;;;;;2.60;1.40;;;;;;;25.58;100.00;98730.17;1703149;81;21035;-70
2022/07/11 08:57:21;;;;;;;2.12;1.10;;;;;;;25.67;100.00;98736.02;1728519;81;21502;-70
2022/07/11 08:59:48;;;;;;;4.22;1.45;;;;;;;25.73;100.00;98739.88;1723682;81;21027;-73
2022/07/11 09:02:17;;;;;;;2.95;1.00;;;;;;;25.80;100.00;98732.45;1735002;82;21032;-73
2022/07/11 09:04:52;;;;;;;2.98;1.10;;;;;;;25.79;100.00;98732.28;1728497;81;21079;-71
2022/07/11 09:07:23;;;;;;;4.65;0.95;;;;;;;25.73;100.00;98737.05;1730052;82;21094;-71
2022/07/11 09:09:52;;;;;;;2.52;0.93;;;;;;;25.71;100.00;98729.64;1734636;80;21058;-70
2022/07/11 09:12:26;;;;;;;2.62;1.12;;;;;;;25.76;99.06;98730.52;1730698;82;21022;-69
2022/07/11 09:15:00;;;;;;;4.83;1.10;;;;;;;25.84;100.00;98728.92;1731740;82;21060;-75
2022/07/11 09:17:32;;;;;;;3.47;1.27;;;;;;;25.85;96.71;98735.52;1726784;82;21588;-73
2022/07/11 09:19:59;;;;;;;8.15;1.50;;;;;;;25.91;99.87;98730.75;1701042;82;21059;-72
2022/07/11 09:25:23;;;;;;;6.12;3.00;;;;;;;26.18;100.00;98712.66;1731931;82;21091;-73
2022/07/11 09:27:56;;;;;;;6.35;4.50;;;;;;;26.41;98.69;98716.48;1730326;82;21014;-71
2022/07/11 09:30:35;;;;;;;6.55;2.05;;;;;;;26.55;100.00;98723.09;1728549;82;21761;-70
2022/07/11 09:33:06;;;;;;;3.47;2.02;;;;;;;26.56;100.00;98714.78;1741851;80;21463;-71
2022/07/11 09:35:45;;;;;;;5.65;3.42;;;;;;;26.70;100.00;98720.63;1741738;81;21134;-71
2022/07/11 09:38:17;;;;;;;4.75;3.15;;;;;;;26.79;100.00;98713.50;1745591;81;21113;-74
2022/07/11 09:40:47;;;;;;;5.50;2.83;;;;;;;27.01;100.00;98715.02;1744525;81;21513;-71
2022/07/11 09:43:24;;;;;;;2.77;1.27;;;;;;;27.05;100.00;98716.35;1729613;81;22136;-74
2022/07/11 09:45:53;;;;;;;2.77;1.52;;;;;;;27.09;100.00;98708.56;1749885;81;21019;-70
2022/07/11 09:48:22;;;;;;;4.78;1.35;;;;;;;27.12;90.61;98707.64;1741013;81;22178;-71
2022/07/11 09:51:04;;;;;;;1.92;1.12;;;;;;;27.05;90.92;98703.63;1748890;81;21003;-74
2022/07/11 09:53:31;;;;;;;3.72;1.32;;;;;;;27.09;90.98;98698.67;1721169;81;21510;-72
2022/07/11 09:56:00;;;;;;;4.05;1.32;;;;;;;27.06;89.88;98701.77;1748656;81;21103;-72
2022/07/11 09:58:33;;;;;;;15.85;3.55;;;;;;;27.01;92.58;98706.55;1717622;81;21497;-74
2022/07/11 10:01:06;;;;;;;11.22;3.80;;;;;;;27.00;99.70;98709.83;1744517;81;21506;-76
2022/07/11 10:03:35;;;;;;;10.23;3.40;;;;;;;26.85;100.00;98715.95;1743334;81;21518;-74
2022/07/11 10:06:03;;;;;;;7.62;4.20;;;;;;;26.72;100.00;98720.97;1745283;81;21058;-74
2022/07/11 10:08:33;;;;;;;7.25;4.20;;;;;;;26.69;100.00;98717.64;1743288;81;22380;-76
2022/07/11 10:10:59;;;;;;;14.05;3.58;;;;;;;26.61;100.00;98714.23;1745747;81;21056;-74
2022/07/11 10:13:30;;;;;;;13.90;3.62;;;;;;;26.59;100.00;98713.91;1749240;81;21014;-74
2022/07/11 10:16:07;;;;;;;9.70;4.45;;;;;;;26.56;100.00;98709.78;1738878;81;21015;-76
2022/07/11 10:18:42;;;;;;;8.80;3.65;;;;;;;26.44;100.00;98710.70;1720827;81;21047;-75
2022/07/11 10:21:14;;;;;;;13.95;3.50;;;;;;;26.25;100.00;98710.41;1743440;81;21225;-73
2022/07/11 10:24:16;;;;;;;8.45;3.47;;;;;;;25.99;100.00;98720.24;1747142;81;21085;-74
2022/07/11 10:27:01;;;;;;;14.75;4.22;;;;;;;25.69;100.00;98716.60;1745434;81;21104;-74
2022/07/11 10:29:52;;;;;;;10.75;4.00;;;;;;;25.51;100.00;98717.05;1741967;81;20994;-71
2022/07/11 10:32:20;;;;;;;8.45;3.50;;;;;;;25.46;100.00;98714.16;1750559;80;21057;-72
2022/07/11 10:35:11;;;;;;;9.28;3.42;;;;;;;25.36;100.00;98713.21;1741087;81;21026;-70
2022/07/11 10:37:49;;;;;;;10.10;3.80;;;;;;;25.32;100.00;98716.72;1742748;81;21066;-73
2022/07/11 10:40:55;;;;;;;9.03;4.90;;;;;;;25.35;100.00;98717.88;1741251;81;20999;-72
2022/07/11 10:43:36;;;;;;;7.90;4.10;;;;;;;25.25;100.00;98728.17;1719132;81;21018;-74
2022/07/11 10:46:12;;;;;;;9.63;4.25;;;;;;;25.04;100.00;98724.66;1745041;81;21011;-73
2022/07/11 10:49:20;;;;;;;9.38;4.12;;;;;;;24.84;100.00;98723.30;1734133;82;21588;-73
2022/07/11 10:51:55;;;;;;;12.37;5.85;;;;;;;24.71;100.00;98728.20;1717187;81;21082;-68
2022/07/11 10:54:59;;;;;;;15.00;5.85;;;;;;;24.58;100.00;98722.45;1746048;81;22227;-74
2022/07/11 10:57:57;;;;;;;15.48;4.80;;;;;;;24.50;100.00;98720.40;1740763;81;21050;-73
2022/07/11 11:00:26;;;;;;;11.33;4.33;;;;;;;24.19;100.00;98722.84;1739597;81;21121;-73
2022/07/11 11:03:10;;;;;;;7.83;3.77;;;;;;;24.17;100.00;98717.48;1740845;81;21057;-71
2022/07/11 11:05:52;;;;;;;9.13;3.90;;;;;;;24.09;100.00;98720.23;1744998;81;21089;-71
2022/07/11 11:08:43;;;;;;;15.20;3.85;;;;;;;24.00;100.00;98725.83;1725524;81;21086;-77
2022/07/11 11:11:38;;;;;;;10.35;3.65;;;;;;;23.97;100.00;98724.48;1747700;81;21058;-73
2022/07/11 11:14:22;;;;;;;11.88;4.70;;;;;;;23.95;100.00;98728.50;1746873;81;21057;-71
2022/07/11 11:16:51;;;;;;;14.80;3.83;;;;;;;23.95;100.00;98736.17;1745337;81;21881;-68
2022/07/11 11:19:54;;;;;;;11.30;2.75;;;;;;;23.98;100.00;98733.89;1742373;81;21042;-68
2022/07/11 11:22:23;;;;;;;8.70;2.45;;;;;;;24.03;100.00;98741.83;1744677;81;21026;-71
2022/07/11 11:24:54;;;;;;;5.50;3.10;;;;;;;24.11;100.00;98741.67;1743066;81;21030;-72
2022/07/11 11:27:23;;;;;;;6.55;2.67;;;;;;;24.15;100.00;98746.02;1740136;80;21070;-74
2022/07/11 11:29:56;;;;;;;9.03;3.00;;;;;;;24.09;100.00;98737.11;1742840;81;21038;-72
2022/07/11 11:32:30;;;;;;;6.62;2.75;;;;;;;23.97;100.00;98749.80;1739329;80;21034;-73
2022/07/11 11:34:59;;;;;;;8.58;2.60;;;;;;;23.84;100.00;98749.02;1714049;82;21003;-71
2022/07/11 11:37:27;;;;;;;8.15;2.37;;;;;;;23.71;100.00;98755.25;1695324;82;21040;-73
2022/07/11 11:40:01;;;;;;;4.25;2.20;;;;;;;23.63;100.00;98763.64;1721647;82;21047;-74
2022/07/11 11:42:28;;;;;;;5.25;2.30;;;;;;;23.56;100.00;98762.38;1715408;82;21204;-74